Augusta Township, Michigan
Current Conditions -  °F | °C
As of 2:53 PM on Monday 22 Dec 2014 (Local Time) from KARB Reporting Station
Overcast Overcast  
Wind Chill:   Ceiling: 10000
Heat Index:   Visibility: 10mi
Dew Point: -1°   Wind: 9mph
Humidity: 70%   Direction: 100°E
Pressure: 29.93"   Gusts: NA
Location:  42.0828°N, 83.683°W
Report Text: KARB 221953Z 10008KT 10SM OVC100 04/M01 A2993 RMK AO2 SLP143 T00391011
Loading
Personal Weather Stations






























Interactive Weather Map New forecast layout! Learn more

10-Day Weather Forecast

Advertisements
Track Severe Weather on mobile